createdAt,value
2018-07-24T00:02:22.580Z,5.43
2018-07-24T00:07:32.211Z,4.87
2018-07-24T00:12:42.300Z,4.33
2018-07-24T00:17:51.855Z,4.80
2018-07-24T00:23:00.997Z,4.83
2018-07-24T00:28:10.551Z,4.93
2018-07-24T00:33:20.072Z,5.60
2018-07-24T00:38:29.323Z,4.93
2018-07-24T00:43:38.661Z,4.60
2018-07-24T00:48:48.167Z,5.07
2018-07-24T00:53:57.538Z,4.87
2018-07-24T00:59:06.811Z,5.13
2018-07-24T01:04:16.192Z,5.10
2018-07-24T01:09:24.861Z,6.10
2018-07-24T01:14:34.196Z,4.87
2018-07-24T01:19:43.184Z,4.90
2018-07-24T01:24:52.334Z,5.27
2018-07-24T01:30:01.128Z,5.00
2018-07-24T01:35:10.625Z,5.90
2018-07-24T01:40:20.286Z,5.23
2018-07-24T01:45:29.747Z,4.80
2018-07-24T01:50:38.635Z,6.07
2018-07-24T01:55:48.428Z,5.80
2018-07-24T02:00:57.618Z,5.83
2018-07-24T02:06:06.548Z,5.37
2018-07-24T02:11:16.289Z,5.43
2018-07-24T02:16:25.994Z,5.50
2018-07-24T02:21:35.389Z,6.13
2018-07-24T02:26:44.611Z,5.93
2018-07-24T02:31:53.949Z,5.87
2018-07-24T02:37:03.594Z,5.97
2018-07-24T02:42:13.034Z,5.90
2018-07-24T02:47:22.533Z,6.00
2018-07-24T02:52:31.964Z,6.17
2018-07-24T02:57:41.494Z,5.60
2018-07-24T03:02:51.357Z,6.80
2018-07-24T03:08:00.889Z,6.03
2018-07-24T03:13:10.186Z,5.97
2018-07-24T03:18:18.926Z,5.67
2018-07-24T03:23:28.845Z,5.83
2018-07-24T03:28:38.625Z,6.33
2018-07-24T03:33:47.772Z,6.37
2018-07-24T03:38:56.671Z,6.60
2018-07-24T03:44:06.657Z,6.80
2018-07-24T03:49:16.111Z,6.50
2018-07-24T03:54:25.127Z,6.33
2018-07-24T03:59:34.210Z,6.90
2018-07-24T04:04:43.887Z,6.30
2018-07-24T04:09:52.830Z,6.50
2018-07-24T04:15:01.712Z,7.53
2018-07-24T04:20:10.684Z,7.07
2018-07-24T04:25:19.535Z,6.73
2018-07-24T04:30:28.542Z,6.80
2018-07-24T04:35:37.686Z,6.40
2018-07-24T04:40:47.143Z,4.63
2018-07-24T04:45:55.797Z,4.50
2018-07-24T04:51:05.353Z,4.43
2018-07-24T04:56:15.095Z,4.33
2018-07-24T05:01:24.905Z,4.60
2018-07-24T05:06:35.114Z,4.47
2018-07-24T05:11:44.265Z,4.80
2018-07-24T05:16:53.566Z,5.10
2018-07-24T05:22:02.890Z,5.10
2018-07-24T05:27:13.059Z,5.03
2018-07-24T05:32:22.746Z,5.97
2018-07-24T05:37:32.800Z,5.10
2018-07-24T05:42:42.373Z,4.90
2018-07-24T05:47:51.921Z,5.67
2018-07-24T05:53:02.107Z,5.10
2018-07-24T05:58:11.923Z,5.10
2018-07-24T06:03:21.420Z,4.90
2018-07-24T06:08:31.941Z,4.73
2018-07-24T06:13:41.735Z,5.30
2018-07-24T06:18:51.589Z,4.70
2018-07-24T06:24:00.949Z,4.73
2018-07-24T06:29:10.513Z,5.20
2018-07-24T06:34:19.506Z,4.30
2018-07-24T06:39:28.454Z,5.17
2018-07-24T06:44:41.781Z,4.77
2018-07-24T06:49:51.001Z,4.63
2018-07-24T06:55:00.482Z,4.53
2018-07-24T07:00:10.365Z,4.60
2018-07-24T07:05:19.972Z,4.13
2018-07-24T07:10:29.099Z,4.30
2018-07-24T07:15:38.138Z,4.10
2018-07-24T07:20:47.955Z,4.00
2018-07-24T07:25:57.099Z,3.60
2018-07-24T07:31:07.126Z,3.93
2018-07-24T07:36:16.704Z,4.23
2018-07-24T07:41:26.707Z,3.97
2018-07-24T07:46:36.224Z,4.13
2018-07-24T07:51:46.140Z,3.77
2018-07-24T07:56:55.656Z,3.60
2018-07-24T08:02:05.791Z,3.57
2018-07-24T08:07:15.096Z,3.10
2018-07-24T08:12:24.074Z,3.33
2018-07-24T08:17:33.533Z,3.23
2018-07-24T08:22:43.211Z,2.50
2018-07-24T08:27:52.215Z,2.50
2018-07-24T08:33:02.836Z,2.20
2018-07-24T08:38:12.044Z,2.60
2018-07-24T08:43:21.282Z,2.53
2018-07-24T08:48:30.403Z,2.57
2018-07-24T08:53:40.177Z,2.67
2018-07-24T08:58:49.146Z,2.30
2018-07-24T09:03:58.071Z,2.60
2018-07-24T09:09:08.961Z,2.40
2018-07-24T09:14:18.520Z,3.10
2018-07-24T09:19:28.194Z,2.50
2018-07-24T09:24:38.885Z,2.77
2018-07-24T09:29:47.774Z,3.40
2018-07-24T09:34:56.754Z,2.60
2018-07-24T09:40:07.743Z,2.80
2018-07-24T09:45:17.246Z,2.20
2018-07-24T09:50:26.364Z,2.50
2018-07-24T09:55:37.188Z,2.40
2018-07-24T10:00:46.742Z,2.37
2018-07-24T10:05:56.650Z,2.20
2018-07-24T10:11:07.552Z,2.33
2018-07-24T10:16:16.640Z,2.63
2018-07-24T10:21:25.677Z,2.40
2018-07-24T10:26:35.768Z,2.77
2018-07-24T10:31:45.327Z,2.73
2018-07-24T10:36:54.905Z,2.37
2018-07-24T10:42:04.536Z,2.67
2018-07-24T10:47:14.478Z,2.90
2018-07-24T10:52:23.870Z,2.70
2018-07-24T10:57:34.484Z,2.70
2018-07-24T11:02:45.097Z,3.00
2018-07-24T11:07:54.433Z,2.70
2018-07-24T11:13:04.353Z,2.80
2018-07-24T11:18:14.075Z,2.73
2018-07-24T11:23:23.962Z,3.10
2018-07-24T11:28:34.257Z,3.10
2018-07-24T11:33:44.265Z,2.87
2018-07-24T11:38:53.842Z,2.90
2018-07-24T11:44:03.250Z,3.23
2018-07-24T11:49:13.480Z,3.03
2018-07-24T11:54:23.206Z,2.93
2018-07-24T11:59:33.064Z,2.93
2018-07-24T12:04:43.068Z,3.30
2018-07-24T12:09:53.006Z,3.10
2018-07-24T12:15:02.500Z,3.00
2018-07-24T12:20:11.720Z,3.37
2018-07-24T12:25:21.178Z,3.60
2018-07-24T12:30:30.201Z,2.63
2018-07-24T12:35:40.230Z,3.00
2018-07-24T12:40:49.823Z,3.20
2018-07-24T12:45:59.048Z,3.27
2018-07-24T12:51:09.029Z,3.07
2018-07-24T12:56:18.484Z,2.93
2018-07-24T13:01:28.001Z,3.13
2018-07-24T13:06:37.280Z,3.17
2018-07-24T13:11:47.060Z,2.73
2018-07-24T13:16:56.387Z,3.23
2018-07-24T13:22:05.548Z,2.63
2018-07-24T13:27:15.046Z,2.77
2018-07-24T13:32:24.581Z,3.07
2018-07-24T13:37:33.902Z,2.90
2018-07-24T13:42:44.709Z,3.10
2018-07-24T13:48:00.936Z,3.03
2018-07-24T13:53:10.372Z,3.13
2018-07-24T13:58:19.531Z,3.17
2018-07-24T14:03:28.672Z,2.60
2018-07-24T14:08:38.667Z,2.90
2018-07-24T14:13:48.763Z,2.40
2018-07-24T14:18:58.230Z,2.90
2018-07-24T14:24:07.890Z,3.00
2018-07-24T14:29:17.471Z,3.10
2018-07-24T14:34:27.453Z,2.40
2018-07-24T14:39:36.707Z,2.70
2018-07-24T14:44:46.184Z,2.57
2018-07-24T14:49:55.961Z,2.53
2018-07-24T14:55:05.966Z,2.40
2018-07-24T15:00:15.708Z,2.30
2018-07-24T15:05:25.663Z,2.20
2018-07-24T15:10:35.640Z,2.50
2018-07-24T15:15:45.148Z,2.10
2018-07-24T15:20:54.972Z,2.13
2018-07-24T15:26:05.449Z,2.50
2018-07-24T15:31:15.021Z,2.10
2018-07-24T15:36:24.163Z,2.30
2018-07-24T15:41:34.138Z,2.10
2018-07-24T15:46:43.908Z,2.10
2018-07-24T15:51:53.675Z,2.10
2018-07-24T15:57:04.460Z,1.93
2018-07-24T16:02:14.704Z,2.13
2018-07-24T16:07:24.159Z,1.90
2018-07-24T16:12:33.297Z,2.30
2018-07-24T16:17:42.980Z,1.87
2018-07-24T16:22:52.347Z,1.70
2018-07-24T16:28:02.119Z,2.87
2018-07-24T16:33:11.722Z,2.27
2018-07-24T16:38:21.816Z,2.20
2018-07-24T16:43:31.920Z,2.40
2018-07-24T16:48:41.494Z,2.30
2018-07-24T16:53:51.281Z,1.87
2018-07-24T16:59:01.424Z,1.93
2018-07-24T17:04:11.096Z,2.13
2018-07-24T17:09:21.078Z,1.97
2018-07-24T17:14:30.861Z,2.10
2018-07-24T17:19:40.828Z,1.63
2018-07-24T17:24:50.306Z,2.10
2018-07-24T17:30:00.276Z,2.40
2018-07-24T17:35:09.893Z,2.00
2018-07-24T17:40:19.236Z,2.10
2018-07-24T17:45:28.934Z,1.90
2018-07-24T17:50:38.723Z,2.27
2018-07-24T17:55:48.655Z,2.20
2018-07-24T18:00:58.150Z,2.20
2018-07-24T18:06:08.255Z,2.53
2018-07-24T18:11:17.330Z,2.70
2018-07-24T18:16:27.049Z,2.43
2018-07-24T18:21:36.257Z,2.00
2018-07-24T18:26:46.044Z,2.90
2018-07-24T18:31:55.077Z,2.37
2018-07-24T18:37:04.771Z,2.27
2018-07-24T18:42:13.877Z,2.57
2018-07-24T18:47:22.734Z,2.40
2018-07-24T18:52:32.347Z,2.83
2018-07-24T18:57:41.261Z,3.37
2018-07-24T19:02:50.530Z,3.23
2018-07-24T19:08:00.673Z,4.20
2018-07-24T19:13:10.022Z,3.20
2018-07-24T19:18:19.067Z,3.20
2018-07-24T19:23:31.247Z,3.30
2018-07-24T19:28:40.722Z,3.40
2018-07-24T19:33:49.620Z,3.60
2018-07-24T19:38:58.877Z,3.23
2018-07-24T19:44:09.427Z,6.07
2018-07-24T19:49:21.645Z,3.97
2018-07-24T19:54:31.311Z,3.90
2018-07-24T19:59:43.223Z,4.03
2018-07-24T20:04:52.598Z,3.47
2018-07-24T20:10:05.769Z,4.10
2018-07-24T20:15:17.797Z,4.00
2018-07-24T20:20:32.114Z,3.63
2018-07-24T20:25:42.135Z,4.10
2018-07-24T20:30:54.398Z,4.00
2018-07-24T20:36:03.989Z,4.20
2018-07-24T20:41:13.660Z,4.03
2018-07-24T20:46:22.945Z,5.07
2018-07-24T20:51:32.848Z,4.90
2018-07-24T20:56:45.080Z,4.80
2018-07-24T21:01:56.704Z,4.40
2018-07-24T21:07:06.511Z,4.07
2018-07-24T21:12:17.017Z,3.93
2018-07-24T21:17:33.436Z,4.20
2018-07-24T21:22:46.162Z,4.03
2018-07-24T21:27:56.362Z,4.10
2018-07-24T21:33:09.501Z,4.17
2018-07-24T21:38:18.999Z,4.13
2018-07-24T21:43:29.311Z,4.60
2018-07-24T21:48:40.935Z,4.53
2018-07-24T21:53:51.821Z,4.53
2018-07-24T21:59:03.020Z,4.87
2018-07-24T22:04:14.977Z,5.20
2018-07-24T22:09:24.293Z,4.83
2018-07-24T22:14:33.405Z,4.90
2018-07-24T22:19:44.102Z,4.73
2018-07-24T22:24:53.050Z,4.93
2018-07-24T22:30:02.234Z,5.33
2018-07-24T22:35:11.517Z,6.03
2018-07-24T22:40:20.908Z,5.30
2018-07-24T22:45:30.153Z,5.47
2018-07-24T22:50:39.205Z,5.23
2018-07-24T22:55:49.020Z,5.60
2018-07-24T23:00:57.821Z,5.23
2018-07-24T23:06:06.950Z,5.27
2018-07-24T23:11:16.016Z,5.47
2018-07-24T23:16:24.688Z,5.13
2018-07-24T23:21:33.676Z,5.50
2018-07-24T23:26:42.850Z,4.97
2018-07-24T23:31:51.877Z,4.73
2018-07-24T23:37:00.669Z,5.00
2018-07-24T23:42:09.968Z,5.53
2018-07-24T23:47:19.376Z,5.57
2018-07-24T23:52:28.307Z,5.90
2018-07-24T23:57:37.694Z,5.53
